createdAt,value
2018-12-04T00:01:45.058Z,55.80
2018-12-04T00:04:34.609Z,55.60
2018-12-04T00:07:22.820Z,55.50
2018-12-04T00:10:11.647Z,55.40
2018-12-04T00:13:00.309Z,55.30
2018-12-04T00:15:49.357Z,55.40
2018-12-04T00:18:37.757Z,55.40
2018-12-04T00:21:27.045Z,55.30
2018-12-04T00:24:15.861Z,55.20
2018-12-04T00:27:05.041Z,55.30
2018-12-04T00:29:53.333Z,55.20
2018-12-04T00:32:41.457Z,55.20
2018-12-04T00:35:30.356Z,55.10
2018-12-04T00:38:19.254Z,55.00
2018-12-04T00:41:07.179Z,55.00
2018-12-04T00:43:55.903Z,55.10
2018-12-04T00:46:44.173Z,55.00
2018-12-04T00:49:34.637Z,55.00
2018-12-04T00:52:23.319Z,55.00
2018-12-04T00:55:13.498Z,55.10
2018-12-04T00:58:02.447Z,55.10
2018-12-04T01:00:51.583Z,55.20
2018-12-04T01:03:40.671Z,55.00
2018-12-04T01:06:29.515Z,55.00
2018-12-04T01:09:17.792Z,54.90
2018-12-04T01:12:06.478Z,55.10
2018-12-04T01:14:55.174Z,55.10
2018-12-04T01:17:42.993Z,54.90
2018-12-04T01:20:31.442Z,55.00
2018-12-04T01:23:19.835Z,54.90
2018-12-04T01:26:09.799Z,54.90
2018-12-04T01:28:58.038Z,54.80
2018-12-04T01:31:47.069Z,54.70
2018-12-04T01:34:36.990Z,55.00
2018-12-04T01:37:26.177Z,54.50
2018-12-04T01:40:14.596Z,54.50
2018-12-04T01:43:04.201Z,54.50
2018-12-04T01:45:52.769Z,54.60
2018-12-04T01:48:41.071Z,54.50
2018-12-04T01:51:29.417Z,54.50
2018-12-04T01:54:18.377Z,54.60
2018-12-04T01:57:07.702Z,54.80
2018-12-04T01:59:56.591Z,54.80
2018-12-04T02:02:44.987Z,54.80
2018-12-04T02:05:33.771Z,54.80
2018-12-04T02:08:22.511Z,54.70
2018-12-04T02:11:11.898Z,54.70
2018-12-04T02:14:00.459Z,54.80
2018-12-04T02:16:49.536Z,54.90
2018-12-04T02:19:38.038Z,54.70
2018-12-04T02:22:26.555Z,54.90
2018-12-04T02:25:14.695Z,54.80
2018-12-04T02:28:05.271Z,54.80
2018-12-04T02:30:53.195Z,54.80
2018-12-04T02:33:41.533Z,54.60
2018-12-04T02:36:34.825Z,54.60
2018-12-04T02:39:25.865Z,54.70
2018-12-04T02:42:14.316Z,54.70
2018-12-04T02:45:03.762Z,54.60
2018-12-04T02:47:52.121Z,54.70
2018-12-04T02:50:41.070Z,54.60
2018-12-04T02:53:31.597Z,54.70
2018-12-04T02:56:20.360Z,54.80
2018-12-04T02:59:09.415Z,54.70
2018-12-04T03:01:57.714Z,54.70
2018-12-04T03:04:46.768Z,54.50
2018-12-04T03:07:35.089Z,54.70
2018-12-04T03:10:23.434Z,54.80
2018-12-04T03:13:12.498Z,54.80
2018-12-04T03:16:03.273Z,54.80
2018-12-04T03:18:52.329Z,54.90
2018-12-04T03:21:40.187Z,55.00
2018-12-04T03:24:27.949Z,55.10
2018-12-04T03:27:15.871Z,55.10
2018-12-04T03:30:04.110Z,55.00
2018-12-04T03:32:52.963Z,55.00
2018-12-04T03:35:42.170Z,55.00
2018-12-04T03:38:31.194Z,54.90
2018-12-04T03:41:19.630Z,54.90
2018-12-04T03:44:09.963Z,55.10
2018-12-04T03:46:59.643Z,54.80
2018-12-04T03:49:49.698Z,54.90
2018-12-04T03:52:38.855Z,54.90
2018-12-04T03:55:27.443Z,55.00
2018-12-04T03:58:15.647Z,55.30
2018-12-04T04:01:05.170Z,55.10
2018-12-04T04:03:53.352Z,55.10
2018-12-04T04:06:41.521Z,55.30
2018-12-04T04:09:32.213Z,55.10
2018-12-04T04:12:24.394Z,55.20
2018-12-04T04:15:13.103Z,55.40
2018-12-04T04:18:02.146Z,55.40
2018-12-04T04:20:52.542Z,55.30
2018-12-04T04:23:43.555Z,55.40
2018-12-04T04:26:32.230Z,55.50
2018-12-04T04:29:20.985Z,55.60
2018-12-04T04:32:09.946Z,55.70
2018-12-04T04:34:58.915Z,55.60
2018-12-04T04:37:47.393Z,55.70
2018-12-04T04:40:35.552Z,55.50
2018-12-04T04:43:24.720Z,56.00
2018-12-04T04:46:14.451Z,56.00
2018-12-04T04:49:03.132Z,56.00
2018-12-04T04:51:52.393Z,56.20
2018-12-04T04:54:42.718Z,56.30
2018-12-04T04:57:34.877Z,56.50
2018-12-04T05:00:27.808Z,56.60
2018-12-04T05:03:17.368Z,56.60
2018-12-04T05:06:05.594Z,56.70
2018-12-04T05:08:54.289Z,56.90
2018-12-04T05:11:44.616Z,57.50
2018-12-04T05:17:50.030Z,58.00
2018-12-04T05:20:41.258Z,58.20
2018-12-04T05:23:31.198Z,57.90
2018-12-04T05:26:20.535Z,57.70
2018-12-04T05:29:13.391Z,57.50
2018-12-04T05:32:03.183Z,57.20
2018-12-04T05:34:51.536Z,57.00
2018-12-04T05:37:46.170Z,56.80
2018-12-04T05:40:36.546Z,56.50
2018-12-04T05:43:26.942Z,56.40
2018-12-04T05:46:16.931Z,56.40
2018-12-04T05:49:04.653Z,56.20
2018-12-04T05:51:56.050Z,56.30
2018-12-04T05:54:44.493Z,56.20
2018-12-04T05:57:33.620Z,56.20
2018-12-04T06:00:23.604Z,56.10
2018-12-04T06:03:11.908Z,56.20
2018-12-04T06:06:00.529Z,56.40
2018-12-04T06:08:51.747Z,56.40
2018-12-04T06:11:42.281Z,56.40
2018-12-04T06:14:31.516Z,56.30
2018-12-04T06:17:26.893Z,56.30
2018-12-04T06:20:19.117Z,56.50
2018-12-04T06:23:10.368Z,56.80
2018-12-04T06:26:02.896Z,56.80
2018-12-04T06:28:52.691Z,56.80
2018-12-04T06:31:41.860Z,56.90
2018-12-04T06:34:35.042Z,56.90
2018-12-04T06:37:23.736Z,56.80
2018-12-04T06:40:13.559Z,56.70
2018-12-04T06:43:02.993Z,56.70
2018-12-04T06:45:52.240Z,56.60
2018-12-04T06:48:43.722Z,56.50
2018-12-04T06:51:32.091Z,56.70
2018-12-04T06:54:23.230Z,56.80
2018-12-04T06:57:11.797Z,56.70
2018-12-04T07:00:01.170Z,56.70
2018-12-04T07:02:51.225Z,56.40
2018-12-04T07:05:42.829Z,56.20
2018-12-04T07:08:32.202Z,55.80
2018-12-04T07:11:20.415Z,55.90
2018-12-04T07:14:09.209Z,56.60
2018-12-04T07:16:57.944Z,56.00
2018-12-04T07:19:49.061Z,55.30
2018-12-04T07:22:39.589Z,55.20
2018-12-04T07:25:29.032Z,55.20
2018-12-04T07:28:19.727Z,55.10
2018-12-04T07:31:08.333Z,55.20
2018-12-04T07:33:57.713Z,55.30
2018-12-04T07:36:47.954Z,55.00
2018-12-04T07:39:36.918Z,55.00
2018-12-04T07:42:27.406Z,54.80
2018-12-04T07:45:16.566Z,54.90
2018-12-04T07:48:06.673Z,54.70
2018-12-04T07:50:55.609Z,55.00
2018-12-04T07:53:44.437Z,55.60
2018-12-04T07:56:33.968Z,55.80
2018-12-04T07:59:23.528Z,55.90
2018-12-04T08:02:19.099Z,56.40
2018-12-04T08:05:10.493Z,56.80
2018-12-04T08:08:00.760Z,56.30
2018-12-04T08:10:50.167Z,56.60
2018-12-04T08:13:37.788Z,56.50
2018-12-04T08:16:26.176Z,56.70
2018-12-04T08:19:14.276Z,57.00
2018-12-04T08:22:09.311Z,57.00
2018-12-04T08:25:03.899Z,56.80
2018-12-04T08:27:55.136Z,56.20
2018-12-04T08:30:44.666Z,56.00
2018-12-04T08:33:34.226Z,56.30
2018-12-04T08:36:22.885Z,56.60
2018-12-04T08:39:13.316Z,56.60
2018-12-04T08:42:02.393Z,56.90
2018-12-04T08:44:50.283Z,56.50
2018-12-04T08:47:39.077Z,56.80
2018-12-04T08:50:28.096Z,56.50
2018-12-04T08:53:17.092Z,56.40
2018-12-04T08:56:06.857Z,56.80
2018-12-04T08:58:58.398Z,56.80
2018-12-04T09:01:46.566Z,56.80
2018-12-04T09:04:34.383Z,56.80
2018-12-04T09:07:22.336Z,57.10
2018-12-04T09:10:10.530Z,57.30
2018-12-04T09:12:58.891Z,57.60
2018-12-04T09:15:47.195Z,57.80
2018-12-04T09:18:35.861Z,57.70
2018-12-04T09:21:24.111Z,57.60
2018-12-04T09:24:13.043Z,57.00
2018-12-04T09:27:05.550Z,56.90
2018-12-04T09:29:52.881Z,57.00
2018-12-04T09:32:41.241Z,57.30
2018-12-04T09:35:30.983Z,57.70
2018-12-04T09:38:20.779Z,57.50
2018-12-04T09:41:14.895Z,57.40
2018-12-04T09:44:08.453Z,57.30
2018-12-04T09:47:00.944Z,57.30
2018-12-04T09:49:55.539Z,57.60
2018-12-04T09:52:52.283Z,57.50
2018-12-04T09:55:41.559Z,57.60
2018-12-04T09:58:34.471Z,57.70
2018-12-04T10:01:23.972Z,57.70
2018-12-04T10:04:11.837Z,57.80
2018-12-04T10:07:01.683Z,57.90
2018-12-04T10:09:50.892Z,58.00
2018-12-04T10:12:39.630Z,58.00
2018-12-04T10:15:28.109Z,58.10
2018-12-04T10:18:18.288Z,58.20
2018-12-04T10:21:07.329Z,58.40
2018-12-04T10:23:55.805Z,58.00
2018-12-04T10:26:43.733Z,58.30
2018-12-04T10:29:31.483Z,58.10
2018-12-04T10:32:19.204Z,57.90
2018-12-04T10:35:06.974Z,58.00
2018-12-04T10:37:56.553Z,57.90
2018-12-04T10:40:45.225Z,57.70
2018-12-04T10:43:33.800Z,57.80
2018-12-04T10:46:23.334Z,57.70
2018-12-04T10:49:11.917Z,57.70
2018-12-04T10:52:00.195Z,57.60
2018-12-04T10:54:48.662Z,57.60
2018-12-04T10:57:36.657Z,57.70
2018-12-04T11:00:29.081Z,57.60
2018-12-04T11:03:18.248Z,57.50
2018-12-04T11:06:06.895Z,57.40
2018-12-04T11:08:56.417Z,57.50
2018-12-04T11:11:47.145Z,57.40
2018-12-04T11:14:38.219Z,57.40
2018-12-04T11:17:28.918Z,57.50
2018-12-04T11:20:20.973Z,57.60
2018-12-04T11:23:09.478Z,57.80
2018-12-04T11:26:00.016Z,57.80
2018-12-04T11:28:49.112Z,58.30
2018-12-04T11:31:37.832Z,57.80
2018-12-04T11:34:26.939Z,57.80
2018-12-04T11:37:15.712Z,57.50
2018-12-04T11:40:04.721Z,57.40
2018-12-04T11:42:53.075Z,57.30
2018-12-04T11:45:53.798Z,57.30
2018-12-04T11:48:43.771Z,57.30
2018-12-04T11:51:32.409Z,57.30
2018-12-04T11:54:23.458Z,57.20
2018-12-04T11:57:13.673Z,57.30
2018-12-04T12:00:04.105Z,57.30
2018-12-04T12:02:54.861Z,57.00
2018-12-04T12:05:44.030Z,56.80
2018-12-04T12:08:35.011Z,56.70
2018-12-04T12:11:23.683Z,56.50
2018-12-04T12:14:12.363Z,56.30
2018-12-04T12:17:00.902Z,56.10
2018-12-04T12:19:49.687Z,56.00
2018-12-04T12:22:37.620Z,56.10
2018-12-04T12:25:27.336Z,56.30
2018-12-04T12:28:17.494Z,56.70
2018-12-04T12:31:05.586Z,56.90
2018-12-04T12:33:53.323Z,56.80
